Time;durP1;ratioP1;P1;durP2;ratioP2;P2;SDS_P1;SDS_P2;PMS_P1;PMS_P2;Temp;Humidity;BMP_temperature;BMP_pressure;BME280_temperature;BME280_humidity;BME280_pressure;Samples;Min_cycle;Max_cycle;Signal;HPM_P1;HPM_P2
2021/04/11 00:00:59;;;;;;;3.15;1.33;;;12.50;96.90;;;;;;4999287;28;20034;-77
2021/04/11 00:03:28;;;;;;;3.35;1.95;;;12.60;48.60;;;;;;4987980;28;20113;-76
2021/04/11 00:05:54;;;;;;;1.92;1.30;;;12.50;33.30;;;;;;4998863;28;20117;-76
2021/04/11 00:08:21;;;;;;;2.08;1.27;;;12.60;1.00;;;;;;4997777;28;20041;-77
2021/04/11 00:10:53;;;;;;;2.13;1.33;;;12.50;1.00;;;;;;5007536;28;20030;-79
2021/04/11 00:13:23;;;;;;;2.13;1.40;;;12.50;1.00;;;;;;4993968;28;20033;-77
2021/04/11 00:15:49;;;;;;;2.15;1.38;;;12.50;1.00;;;;;;4997362;28;20035;-78
2021/04/11 00:18:14;;;;;;;3.78;1.15;;;12.50;1.00;;;;;;4985183;28;20042;-77
2021/04/11 00:20:41;;;;;;;5.53;1.52;;;12.50;1.00;;;;;;4992831;28;20030;-77
2021/04/11 00:23:06;;;;;;;3.40;2.30;;;12.40;1.00;;;;;;5017514;28;20026;-75
2021/04/11 00:25:36;;;;;;;3.45;1.30;;;12.40;1.00;;;;;;5016608;28;20049;-77
2021/04/11 00:28:03;;;;;;;1.80;1.17;;;12.30;1.00;;;;;;5001552;28;20022;-77
2021/04/11 00:30:29;;;;;;;2.92;1.50;;;12.30;1.00;;;;;;4996611;28;20034;-76
2021/04/11 00:32:57;;;;;;;1.88;1.10;;;12.20;6.70;;;;;;5016511;28;20018;-77
2021/04/11 00:35:23;;;;;;;2.72;1.35;;;12.10;23.00;;;;;;5014104;28;20100;-76
2021/04/11 00:37:49;;;;;;;1.73;1.13;;;12.00;59.40;;;;;;5008392;28;20077;-75
2021/04/11 00:40:25;;;;;;;2.08;1.40;;;12.00;66.50;;;;;;4993247;28;20030;-75
2021/04/11 00:43:00;;;;;;;1.50;1.27;;;11.90;99.90;;;;;;4993039;28;20038;-74
2021/04/11 00:45:52;;;;;;;2.03;1.35;;;11.80;99.90;;;;;;4977667;28;20030;-74
2021/04/11 00:48:20;;;;;;;3.42;1.55;;;11.70;99.90;;;;;;4993119;28;20035;-75
2021/04/11 00:51:04;;;;;;;4.82;1.67;;;11.70;99.90;;;;;;4993012;28;20033;-75
2021/04/11 00:53:30;;;;;;;2.47;1.60;;;11.60;1.00;;;;;;4993476;28;20027;-73
2021/04/11 00:55:56;;;;;;;4.60;2.03;;;11.60;65.50;;;;;;4991171;28;20104;-76
2021/04/11 00:58:24;;;;;;;2.72;1.88;;;11.50;99.90;;;;;;4993195;28;20117;-76
2021/04/11 01:00:50;;;;;;;5.32;2.22;;;11.40;99.90;;;;;;4985677;28;20402;-75
2021/04/11 01:03:21;;;;;;;3.67;2.10;;;11.40;1.00;;;;;;5000608;28;20026;-77
2021/04/11 01:05:48;;;;;;;2.38;1.40;;;11.30;26.90;;;;;;4997219;28;20038;-74
2021/04/11 01:08:17;;;;;;;3.25;1.73;;;11.20;99.90;;;;;;4986224;28;20112;-74
2021/04/11 01:10:55;;;;;;;2.22;1.52;;;11.20;99.90;;;;;;4963045;28;20027;-76
2021/04/11 01:13:21;;;;;;;3.20;1.45;;;11.20;1.00;;;;;;4965687;28;20356;-73
2021/04/11 01:15:48;;;;;;;2.28;1.48;;;11.20;1.00;;;;;;4984002;28;20113;-72
2021/04/11 01:18:14;;;;;;;4.45;3.15;;;11.20;60.30;;;;;;4996164;28;20030;-72
2021/04/11 01:20:40;;;;;;;4.15;2.08;;;11.20;99.90;;;;;;4976019;28;20030;-72
2021/04/11 01:23:15;;;;;;;2.55;1.40;;;11.20;99.90;;;;;;4995965;28;20058;-74
2021/04/11 01:25:42;;;;;;;3.55;1.60;;;11.20;99.90;;;;;;4992987;28;20026;-73
2021/04/11 01:28:11;;;;;;;3.42;1.88;;;11.30;99.90;;;;;;4993137;28;20026;-72
2021/04/11 01:30:39;;;;;;;2.05;1.30;;;11.40;1.00;;;;;;4994041;28;20026;-72
2021/04/11 01:33:08;;;;;;;2.38;1.60;;;11.40;59.50;;;;;;4993370;28;20058;-73
2021/04/11 01:35:34;;;;;;;2.75;1.65;;;11.40;8.80;;;;;;5000270;28;20430;-72
2021/04/11 01:38:00;;;;;;;2.90;1.90;;;11.40;17.50;;;;;;5012144;28;20023;-72
2021/04/11 01:41:05;;;;;;;3.47;1.80;;;11.40;99.90;;;;;;5008674;28;20054;-72
2021/04/11 01:43:33;;;;;;;2.95;1.67;;;11.40;99.90;;;;;;5004722;28;20050;-71
2021/04/11 01:45:59;;;;;;;2.90;1.52;;;11.40;99.90;;;;;;5005121;28;20053;-72
2021/04/11 01:48:25;;;;;;;2.38;1.63;;;11.40;99.90;;;;;;4998356;28;20022;-74
2021/04/11 01:50:53;;;;;;;2.25;1.80;;;11.40;1.00;;;;;;4996991;28;20030;-74
2021/04/11 01:53:20;;;;;;;3.30;1.58;;;11.50;99.90;;;;;;4993465;28;20556;-75
2021/04/11 01:55:45;;;;;;;2.10;1.60;;;11.50;99.90;;;;;;4984521;28;20042;-75
2021/04/11 01:58:12;;;;;;;2.42;1.52;;;11.60;99.90;;;;;;5003577;28;20398;-75
2021/04/11 02:00:42;;;;;;;3.15;1.92;;;11.60;99.90;;;;;;4995562;28;20037;-75
2021/04/11 02:03:14;;;;;;;2.92;1.60;;;11.60;99.90;;;;;;4995302;28;20058;-75
2021/04/11 02:05:41;;;;;;;2.25;1.67;;;11.60;1.00;;;;;;4989926;28;20018;-75
2021/04/11 02:08:09;;;;;;;3.53;2.40;;;11.60;99.90;;;;;;4995658;28;20018;-74
2021/04/11 02:10:37;;;;;;;2.55;1.85;;;11.60;1.00;;;;;;4999343;28;20343;-73
2021/04/11 02:13:03;;;;;;;2.75;2.22;;;11.70;1.00;;;;;;5000320;28;20379;-75
2021/04/11 02:15:36;;;;;;;5.13;3.03;;;11.60;99.90;;;;;;4991713;28;20030;-74
2021/04/11 02:18:01;;;;;;;4.38;3.90;;;11.70;99.90;;;;;;5001373;28;20041;-75
2021/04/11 02:20:30;;;;;;;5.25;3.58;;;11.70;99.90;;;;;;5017191;28;20030;-75
2021/04/11 02:22:56;;;;;;;4.00;3.10;;;11.60;1.00;;;;;;5007587;28;20027;-75
2021/04/11 02:25:27;;;;;;;6.18;3.13;;;11.60;99.90;;;;;;4995302;28;20050;-75
2021/04/11 02:27:54;;;;;;;5.70;2.95;;;11.60;99.90;;;;;;4990101;28;20038;-74
2021/04/11 02:30:22;;;;;;;5.13;2.58;;;11.60;1.00;;;;;;4994348;28;20022;-74
2021/04/11 02:32:49;;;;;;;3.53;2.33;;;11.60;99.90;;;;;;4994588;28;20077;-75
2021/04/11 02:35:20;;;;;;;4.30;2.85;;;11.70;99.90;;;;;;4994866;28;20027;-74
2021/04/11 02:37:49;;;;;;;5.72;2.92;;;11.60;99.90;;;;;;4994459;28;20026;-74
2021/04/11 02:40:18;;;;;;;5.45;3.20;;;11.60;99.90;;;;;;4993285;28;20038;-74
2021/04/11 02:42:43;;;;;;;4.88;3.88;;;11.60;1.00;;;;;;4987169;28;20093;-73
2021/04/11 02:45:15;;;;;;;5.43;4.93;;;11.70;99.90;;;;;;4993614;28;20061;-74
2021/04/11 02:47:41;;;;;;;5.28;3.47;;;11.70;99.90;;;;;;4982364;28;20042;-73
2021/04/11 02:50:08;;;;;;;5.70;3.22;;;11.70;72.10;;;;;;5002557;28;20026;-74
2021/04/11 02:52:41;;;;;;;5.03;3.47;;;11.60;1.00;;;;;;5001984;28;20134;-73
2021/04/11 02:55:17;;;;;;;3.92;3.10;;;11.60;99.90;;;;;;4990095;28;20026;-74
2021/04/11 02:57:43;;;;;;;6.25;3.45;;;11.60;99.90;;;;;;5015435;23;20054;-74
2021/04/11 03:00:13;;;;;;;3.83;3.10;;;11.50;99.90;;;;;;4993533;28;20026;-73
2021/04/11 03:02:38;;;;;;;6.13;2.60;;;11.50;1.00;;;;;;4994541;28;20191;-74
2021/04/11 03:05:05;;;;;;;2.97;2.30;;;11.50;1.00;;;;;;4994342;28;20042;-75
2021/04/11 03:07:43;;;;;;;2.72;1.88;;;11.60;1.00;;;;;;4994826;28;20037;-74
2021/04/11 03:10:21;;;;;;;2.50;2.00;;;11.60;99.90;;;;;;4977808;28;20018;-74
2021/04/11 03:12:49;;;;;;;4.00;2.05;;;11.60;99.90;;;;;;4990397;28;20027;-75
2021/04/11 03:15:15;;;;;;;3.88;1.80;;;11.50;5.20;;;;;;4994812;28;20398;-74
2021/04/11 03:17:44;;;;;;;10.02;2.72;;;11.50;99.90;;;;;;4987456;28;20042;-75
2021/04/11 03:20:17;;;;;;;4.07;3.17;;;11.50;23.10;;;;;;4995965;28;20050;-74
2021/04/11 03:22:43;;;;;;;3.83;2.80;;;11.50;99.90;;;;;;4996322;28;20035;-74
2021/04/11 03:25:12;;;;;;;3.15;2.53;;;11.50;1.00;;;;;;5004654;28;20161;-73
2021/04/11 03:27:46;;;;;;;3.38;2.35;;;11.50;13.60;;;;;;5005308;28;20026;-73
2021/04/11 03:30:27;;;;;;;3.78;2.72;;;11.50;1.00;;;;;;5002629;28;20090;-73
2021/04/11 03:33:01;;;;;;;3.40;2.33;;;11.50;67.20;;;;;;4997711;28;20453;-73
2021/04/11 03:35:31;;;;;;;6.28;2.78;;;11.50;36.10;;;;;;4994763;28;20026;-73
2021/04/11 03:38:00;;;;;;;4.05;2.50;;;11.40;1.00;;;;;;5001923;28;20034;-74
2021/04/11 03:40:29;;;;;;;3.55;2.25;;;11.30;1.00;;;;;;4997084;28;20034;-73
2021/04/11 03:43:04;;;;;;;2.40;2.20;;;11.30;1.00;;;;;;4985456;28;20083;-74
2021/04/11 03:45:31;;;;;;;3.45;2.28;;;11.30;99.90;;;;;;4986316;28;20034;-74
2021/04/11 03:48:19;;;;;;;5.28;2.83;;;11.30;99.90;;;;;;4994562;28;20479;-75
2021/04/11 03:50:56;;;;;;;3.60;2.13;;;11.30;1.00;;;;;;4996513;28;20037;-73
2021/04/11 03:53:30;;;;;;;3.33;2.78;;;11.20;1.00;;;;;;4987142;28;20029;-72
2021/04/11 03:56:01;;;;;;;3.50;2.53;;;11.20;99.90;;;;;;5005564;28;20026;-73
2021/04/11 03:58:34;;;;;;;8.20;3.15;;;11.20;1.00;;;;;;5000272;28;20070;-73
2021/04/11 04:01:04;;;;;;;10.20;3.55;;;11.10;99.90;;;;;;5007812;28;20030;-73
2021/04/11 04:03:32;;;;;;;7.63;4.20;;;11.10;99.90;;;;;;4995276;28;20054;-73
2021/04/11 04:06:23;;;;;;;6.93;3.45;;;11.10;99.90;;;;;;4990791;28;20077;-74
2021/04/11 04:08:52;;;;;;;3.80;3.30;;;11.10;99.90;;;;;;4993075;28;20061;-73
2021/04/11 04:11:39;;;;;;;7.70;4.22;;;11.10;99.90;;;;;;4973157;28;20490;-74
2021/04/11 04:14:24;;;;;;;4.85;3.05;;;11.10;99.90;;;;;;4983388;28;20035;-74
2021/04/11 04:16:58;;;;;;;6.63;3.15;;;11.00;99.90;;;;;;4983120;28;20057;-74
2021/04/11 04:19:28;;;;;;;3.47;2.50;;;11.00;99.90;;;;;;4995849;28;20030;-75
2021/04/11 04:22:05;;;;;;;3.75;3.30;;;11.10;99.90;;;;;;4996074;28;20030;-73
2021/04/11 04:24:42;;;;;;;4.57;3.13;;;11.10;99.90;;;;;;4997992;28;20030;-73
2021/04/11 04:27:38;;;;;;;4.28;3.30;;;11.10;99.90;;;;;;4996053;28;20490;-75
2021/04/11 04:30:30;;;;;;;3.20;2.80;;;11.10;99.90;;;;;;4992215;28;20046;-74
2021/04/11 04:33:18;;;;;;;5.97;2.83;;;11.10;99.90;;;;;;4975041;28;20077;-76
2021/04/11 04:36:31;;;;;;;4.20;3.03;;;11.30;63.30;;;;;;4999911;28;20034;-75
2021/04/11 04:39:20;;;;;;;3.15;2.55;;;11.20;99.90;;;;;;4965900;28;20132;-76
2021/04/11 04:42:06;;;;;;;4.03;2.63;;;11.10;99.90;;;;;;4990375;28;20034;-75
2021/04/11 04:45:00;;;;;;;3.90;2.70;;;11.10;99.90;;;;;;4992031;28;20077;-74
2021/04/11 04:47:25;;;;;;;6.15;3.35;;;11.10;1.00;;;;;;4990944;28;20494;-74
2021/04/11 04:50:04;;;;;;;4.88;2.70;;;11.20;95.50;;;;;;4992594;28;20113;-76
2021/04/11 04:52:31;;;;;;;3.75;3.20;;;11.20;99.90;;;;;;4989450;28;20104;-74
2021/04/11 04:55:09;;;;;;;7.53;2.72;;;11.20;99.90;;;;;;4976998;28;20111;-76
2021/04/11 04:57:45;;;;;;;4.32;3.30;;;11.20;99.90;;;;;;4974065;28;20038;-76
2021/04/11 05:00:23;;;;;;;5.13;2.83;;;11.20;99.90;;;;;;4991015;28;20532;-75
2021/04/11 05:03:04;;;;;;;4.07;2.70;;;11.20;10.40;;;;;;4992214;28;20058;-76
2021/04/11 05:05:32;;;;;;;5.40;3.55;;;11.20;99.90;;;;;;4992869;28;20038;-75
2021/04/11 05:07:57;;;;;;;3.25;2.90;;;11.20;99.90;;;;;;4993003;28;20033;-75
2021/04/11 05:10:43;;;;;;;4.05;3.05;;;11.20;99.90;;;;;;4989612;28;20207;-74
2021/04/11 05:13:19;;;;;;;8.70;5.47;;;11.20;96.90;;;;;;4969061;28;20085;-73
2021/04/11 05:15:51;;;;;;;4.78;3.40;;;11.30;99.90;;;;;;4991390;28;20487;-75
2021/04/11 05:18:33;;;;;;;4.70;4.20;;;11.30;99.90;;;;;;4992865;28;20045;-75
2021/04/11 05:21:01;;;;;;;;;;;11.30;37.90;;;;;;4993092;28;20507;-74
2021/04/11 05:23:48;;;;;;;6.30;3.40;;;11.30;1.00;;;;;;4992990;28;19952;-74
2021/04/11 05:26:26;;;;;;;6.15;4.28;;;11.40;99.90;;;;;;4995445;28;20121;-74
2021/04/11 05:29:42;;;;;;;5.28;2.58;;;11.40;1.00;;;;;;4990278;28;20057;-76
2021/04/11 05:32:08;;;;;;;6.43;2.90;;;11.50;1.00;;;;;;4927989;29;20034;-74
2021/04/11 05:34:33;;;;;;;6.18;2.75;;;11.50;99.90;;;;;;4950616;29;20435;-74
2021/04/11 05:37:22;;;;;;;4.18;2.80;;;11.50;1.00;;;;;;4983721;28;20047;-74
2021/04/11 05:40:14;;;;;;;5.32;3.38;;;11.60;1.00;;;;;;5013794;28;20014;-74
2021/04/11 05:43:02;;;;;;;4.57;3.08;;;11.70;1.00;;;;;;5019234;28;20025;-74
2021/04/11 05:45:49;;;;;;;6.18;3.40;;;11.70;1.00;;;;;;5018771;28;20018;-73
2021/04/11 05:48:30;;;;;;;7.15;3.83;;;11.70;1.00;;;;;;5018354;28;20030;-74
2021/04/11 05:51:02;;;;;;;3.97;3.13;;;11.70;99.90;;;;;;5018819;28;20079;-73
2021/04/11 05:53:35;;;;;;;4.03;3.63;;;11.80;99.90;;;;;;5013327;28;20015;-74
2021/04/11 05:56:06;;;;;;;5.07;3.83;;;11.90;99.90;;;;;;5017435;28;20030;-73
2021/04/11 05:58:38;;;;;;;5.95;3.00;;;12.00;99.90;;;;;;5018092;28;20009;-75
2021/04/11 06:01:12;;;;;;;4.03;3.50;;;12.00;99.90;;;;;;5015471;28;20086;-74
2021/04/11 06:03:45;;;;;;;4.15;3.65;;;12.10;93.10;;;;;;5010935;28;20006;-73
2021/04/11 06:06:43;;;;;;;4.60;3.17;;;12.10;1.00;;;;;;5016997;28;20030;-73
2021/04/11 06:09:21;;;;;;;5.18;3.35;;;12.20;22.70;;;;;;4994298;28;20028;-74
2021/04/11 06:11:55;;;;;;;4.53;3.47;;;12.40;99.90;;;;;;5017932;28;20010;-73
2021/04/11 06:14:28;;;;;;;6.45;3.30;;;12.60;1.00;;;;;;5017423;28;20102;-74
2021/04/11 06:16:54;;;;;;;6.47;3.40;;;12.60;1.00;;;;;;5017369;28;20042;-74
2021/04/11 06:19:21;;;;;;;4.20;3.70;;;12.70;99.90;;;;;;5017686;28;20078;-74
2021/04/11 06:21:51;;;;;;;4.28;3.13;;;12.70;99.90;;;;;;5013569;28;20034;-73
2021/04/11 06:24:22;;;;;;;4.32;3.47;;;12.50;1.00;;;;;;5017402;28;20022;-74
2021/04/11 06:27:15;;;;;;;8.45;4.35;;;12.60;1.00;;;;;;5016940;28;20042;-74
2021/04/11 06:29:57;;;;;;;4.70;2.78;;;12.70;99.90;;;;;;5017393;28;20014;-74
2021/04/11 06:32:24;;;;;;;6.03;3.92;;;12.80;99.90;;;;;;5013695;28;20026;-74
2021/04/11 06:35:01;;;;;;;7.20;3.28;;;13.10;1.00;;;;;;5006960;28;20489;-74
2021/04/11 06:37:28;;;;;;;5.75;3.20;;;13.40;99.90;;;;;;4997530;28;20026;-75
2021/04/11 06:39:56;;;;;;;3.47;2.85;;;13.60;99.90;;;;;;4984705;28;20061;-74
2021/04/11 06:42:55;;;;;;;3.80;2.63;;;13.70;7.90;;;;;;4997965;28;20033;-75
2021/04/11 06:46:05;;;;;;;7.95;3.67;;;13.90;99.90;;;;;;4995541;28;20027;-75
2021/04/11 06:48:50;;;;;;;8.30;2.95;;;14.20;99.90;;;;;;4982676;28;20035;-75
2021/04/11 06:51:35;;;;;;;6.25;3.25;;;14.50;1.00;;;;;;4981335;28;20022;-75
2021/04/11 06:54:36;;;;;;;5.03;2.58;;;14.30;1.00;;;;;;4981639;28;20038;-74
2021/04/11 06:57:20;;;;;;;5.10;2.53;;;14.70;1.00;;;;;;4995131;28;20077;-74
2021/04/11 07:00:06;;;;;;;4.72;2.40;;;14.60;99.90;;;;;;4990377;28;20038;-74
2021/04/11 07:03:10;;;;;;;5.97;2.75;;;14.60;99.90;;;;;;5006804;28;20315;-75
2021/04/11 07:05:47;;;;;;;4.35;2.70;;;14.80;99.90;;;;;;5004939;28;20038;-74
2021/04/11 07:08:43;;;;;;;3.97;2.70;;;14.80;99.90;;;;;;5010301;28;20026;-74
2021/04/11 07:11:28;;;;;;;3.45;2.88;;;14.60;99.90;;;;;;5015953;28;20022;-74
2021/04/11 07:14:15;;;;;;;3.50;2.60;;;14.60;99.90;;;;;;5011553;28;20094;-74
2021/04/11 07:16:56;;;;;;;4.30;2.67;;;14.20;99.90;;;;;;5015527;28;20033;-74
2021/04/11 07:19:53;;;;;;;8.90;2.50;;;14.20;1.00;;;;;;5012337;28;20029;-74
2021/04/11 07:22:51;;;;;;;3.55;3.17;;;14.70;99.90;;;;;;5009961;28;20050;-73
2021/04/11 07:25:51;;;;;;;5.28;2.90;;;14.80;99.90;;;;;;5015697;28;20021;-75
2021/04/11 07:28:35;;;;;;;5.80;3.38;;;15.00;30.80;;;;;;5017596;28;20014;-74
2021/04/11 07:31:34;;;;;;;3.55;2.38;;;15.00;1.00;;;;;;5015993;28;20022;-74
2021/04/11 07:34:38;;;;;;;3.83;1.80;;;15.20;1.00;;;;;;5006039;28;20042;-74
2021/04/11 07:37:32;;;;;;;3.80;2.00;;;15.10;99.90;;;;;;5017267;28;20029;-74
2021/04/11 07:40:09;;;;;;;2.00;1.50;;;15.30;99.90;;;;;;5014181;28;20017;-73
2021/04/11 07:42:43;;;;;;;2.47;1.63;;;15.20;99.90;;;;;;5007881;28;20083;-73
2021/04/11 07:45:23;;;;;;;5.85;2.28;;;15.60;99.90;;;;;;4998477;28;20031;-74
2021/04/11 07:48:41;;;;;;;6.38;2.70;;;15.80;99.90;;;;;;4996734;28;20049;-73
2021/04/11 07:51:31;;;;;;;5.43;1.90;;;16.40;93.10;;;;;;4957209;28;20035;-74
2021/04/11 07:54:00;;;;;;;1.90;1.38;;;16.90;1.00;;;;;;4991345;28;20026;-75
2021/04/11 07:56:41;;;;;;;5.85;2.00;;;17.50;1.00;;;;;;4995649;28;20034;-74
2021/04/11 07:59:21;;;;;;;2.40;1.25;;;17.70;1.00;;;;;;4998889;28;20119;-74
2021/04/11 08:02:18;;;;;;;4.75;2.10;;;17.50;99.90;;;;;;4991564;28;20030;-73
2021/04/11 08:05:19;;;;;;;2.90;1.95;;;17.80;99.90;;;;;;4981996;28;20073;-73
2021/04/11 08:08:11;;;;;;;2.50;1.80;;;17.60;99.90;;;;;;4989426;28;20053;-72
2021/04/11 08:11:08;;;;;;;4.38;1.95;;;17.60;99.90;;;;;;4992884;28;20034;-72
2021/04/11 08:13:54;;;;;;;2.72;1.75;;;17.70;99.90;;;;;;4992720;28;20019;-72
2021/04/11 08:16:28;;;;;;;2.42;1.45;;;17.60;99.90;;;;;;4992456;28;20026;-72
2021/04/11 08:19:31;;;;;;;4.10;1.67;;;17.50;99.90;;;;;;4994622;28;20073;-73
2021/04/11 08:22:06;;;;;;;2.08;1.42;;;17.20;99.90;;;;;;4990308;28;20513;-72
2021/04/11 08:24:51;;;;;;;2.55;0.82;;;17.20;99.90;;;;;;5002917;28;20090;-71
2021/04/11 08:27:38;;;;;;;2.25;0.90;;;17.40;99.90;;;;;;5008144;28;20030;-72
2021/04/11 08:30:29;;;;;;;1.20;0.50;;;17.90;99.90;;;;;;4995200;28;20442;-72
2021/04/11 08:33:33;;;;;;;2.50;0.80;;;18.20;99.90;;;;;;4994521;28;20097;-72
2021/04/11 08:36:33;;;;;;;2.03;1.23;;;18.40;99.90;;;;;;4975036;28;20030;-75
2021/04/11 08:39:34;;;;;;;1.02;0.47;;;18.40;99.90;;;;;;4993537;28;20054;-72
2021/04/11 08:42:07;;;;;;;1.15;0.70;;;18.50;99.90;;;;;;4992712;28;20030;-73
2021/04/11 08:45:11;;;;;;;2.53;0.70;;;18.60;99.90;;;;;;4991931;28;20031;-71
2021/04/11 08:47:42;;;;;;;1.27;0.47;;;18.60;99.90;;;;;;4993854;28;20482;-71
2021/04/11 08:50:15;;;;;;;;;;;18.60;99.90;;;;;;5011125;28;20053;-73
2021/04/11 08:53:12;;;;;;;2.25;0.60;;;18.60;99.90;;;;;;5012916;28;19902;-72
2021/04/11 08:56:13;;;;;;;1.15;0.60;;;18.90;99.90;;;;;;5000492;28;20030;-72
2021/04/11 08:58:42;;;;;;;;;;;19.00;99.90;;;;;;5026544;23;20041;-72
2021/04/11 09:01:10;;;;;;;0.73;0.60;;;18.90;99.90;;;;;;5020122;28;19945;-73
2021/04/11 09:04:03;;;;;;;2.47;0.80;;;18.80;99.90;;;;;;5015671;28;20517;-73
2021/04/11 09:06:50;;;;;;;2.33;1.23;;;19.40;99.90;;;;;;5004046;28;20034;-73
2021/04/11 09:09:41;;;;;;;1.05;0.73;;;19.10;99.90;;;;;;5005185;28;20382;-76
2021/04/11 09:12:56;;;;;;;2.70;0.80;;;19.20;99.90;;;;;;5006097;28;20030;-76
2021/04/11 09:15:40;;;;;;;0.70;0.50;;;19.10;99.90;;;;;;5007412;28;20093;-75
2021/04/11 09:18:21;;;;;;;1.13;0.60;;;19.00;99.90;;;;;;5011155;28;20037;-78
2021/04/11 09:20:46;;;;;;;2.60;1.25;;;19.00;99.90;;;;;;5001205;28;20033;-79
2021/04/11 09:23:21;;;;;;;1.55;0.80;;;19.00;99.90;;;;;;4998571;28;20045;-78
2021/04/11 09:26:13;;;;;;;3.15;0.75;;;19.00;99.90;;;;;;5016665;28;20045;-78
2021/04/11 09:29:07;;;;;;;1.63;0.60;;;19.10;99.90;;;;;;5000004;28;20045;-78
2021/04/11 09:31:59;;;;;;;2.50;0.80;;;19.10;98.30;;;;;;5019998;28;20021;-79
2021/04/11 09:34:49;;;;;;;3.63;1.33;;;19.10;98.30;;;;;;4979167;28;20038;-78
2021/04/11 09:37:45;;;;;;;1.92;0.65;;;19.10;95.30;;;;;;5028155;28;20042;-80
2021/04/11 09:40:35;;;;;;;2.40;1.00;;;19.20;95.00;;;;;;5031450;28;20030;-79
2021/04/11 09:43:19;;;;;;;1.15;0.60;;;19.30;95.00;;;;;;5026516;28;20053;-78
2021/04/11 09:45:58;;;;;;;2.03;0.63;;;19.20;92.50;;;;;;5026941;28;20033;-78
2021/04/11 09:48:23;;;;;;;1.10;0.75;;;19.20;90.70;;;;;;5036910;28;20037;-78
2021/04/11 09:51:07;;;;;;;2.08;0.60;;;19.30;88.00;;;;;;5033133;28;20022;-79
2021/04/11 09:53:42;;;;;;;1.20;0.70;;;19.20;83.30;;;;;;5019944;28;20128;-73
2021/04/11 09:56:51;;;;;;;1.23;0.52;;;19.20;84.00;;;;;;5010315;28;20073;-74
2021/04/11 10:00:28;;;;;;;4.60;1.02;;;18.90;85.20;;;;;;5006665;28;20036;-72
2021/04/11 10:03:22;;;;;;;2.00;0.68;;;19.30;87.00;;;;;;4950745;29;20036;-73
2021/04/11 10:06:09;;;;;;;1.25;0.93;;;19.40;79.30;;;;;;5024398;28;20058;-73
2021/04/11 10:09:12;;;;;;;1.83;1.15;;;19.40;76.40;;;;;;5000777;28;20030;-73
2021/04/11 10:11:48;;;;;;;2.03;1.00;;;19.40;73.70;;;;;;4996272;28;20097;-73
2021/04/11 10:14:35;;;;;;;1.05;0.70;;;19.50;73.40;;;;;;5002643;28;20045;-75
2021/04/11 10:17:19;;;;;;;1.45;1.05;;;19.40;71.90;;;;;;5008329;28;20041;-72
2021/04/11 10:20:04;;;;;;;1.55;0.68;;;19.50;69.10;;;;;;4996052;28;20034;-73
2021/04/11 10:22:38;;;;;;;1.70;0.90;;;19.70;67.00;;;;;;5002135;28;20553;-74
2021/04/11 10:25:34;;;;;;;2.05;1.02;;;19.70;62.80;;;;;;4998706;28;20042;-74
2021/04/11 10:28:16;;;;;;;1.95;0.90;;;19.90;60.70;;;;;;4999219;28;20390;-75
2021/04/11 10:30:53;;;;;;;1.77;1.00;;;20.30;54.30;;;;;;5010562;28;20030;-74
2021/04/11 10:33:40;;;;;;;1.98;0.80;;;20.50;51.20;;;;;;4995446;28;20077;-73
2021/04/11 10:36:15;;;;;;;1.25;0.82;;;20.50;45.40;;;;;;4995001;28;20030;-74
2021/04/11 10:38:49;;;;;;;1.13;0.52;;;20.30;38.80;;;;;;5014805;28;20692;-73
2021/04/11 10:41:30;;;;;;;0.90;0.80;;;20.20;36.60;;;;;;5012744;28;20396;-73
2021/04/11 10:44:23;;;;;;;0.90;0.60;;;20.10;34.30;;;;;;5004828;28;20034;-71
2021/04/11 10:47:36;;;;;;;3.08;0.90;;;19.80;32.40;;;;;;4995016;28;20039;-72
2021/04/11 10:50:30;;;;;;;3.55;0.75;;;20.00;33.50;;;;;;4995339;28;20033;-71
2021/04/11 10:53:29;;;;;;;1.63;0.70;;;19.80;29.40;;;;;;4994821;28;20030;-72
2021/04/11 10:56:30;;;;;;;1.00;0.85;;;19.80;28.40;;;;;;4995446;28;20026;-74
2021/04/11 10:59:18;;;;;;;2.80;0.73;;;19.60;26.50;;;;;;5007910;28;20409;-73
2021/04/11 11:02:21;;;;;;;0.80;0.68;;;19.50;26.40;;;;;;5011405;28;20022;-73
2021/04/11 11:05:02;;;;;;;3.53;1.00;;;19.60;25.30;;;;;;5005967;28;20029;-74
2021/04/11 11:07:43;;;;;;;1.05;0.80;;;19.60;24.80;;;;;;4997282;28;20022;-73
2021/04/11 11:10:22;;;;;;;1.02;0.73;;;19.30;25.10;;;;;;4997993;28;20030;-73
2021/04/11 11:13:29;;;;;;;2.55;0.70;;;19.10;25.40;;;;;;4997242;28;20066;-73
2021/04/11 11:16:27;;;;;;;3.72;0.93;;;19.00;25.70;;;;;;5007624;28;20486;-73
2021/04/11 11:19:01;;;;;;;5.43;1.60;;;18.80;26.10;;;;;;5003526;28;20034;-75
2021/04/11 11:21:47;;;;;;;1.85;1.17;;;18.90;28.20;;;;;;4993878;28;20022;-73
2021/04/11 11:24:27;;;;;;;1.50;0.90;;;18.90;28.20;;;;;;5004610;28;20569;-73
2021/04/11 11:27:04;;;;;;;1.10;1.00;;;18.90;28.70;;;;;;5007589;28;20030;-75
2021/04/11 11:30:01;;;;;;;2.00;0.88;;;18.90;28.70;;;;;;5003563;28;20057;-72
2021/04/11 11:32:53;;;;;;;1.70;1.00;;;18.90;28.30;;;;;;4996266;28;20034;-74
2021/04/11 11:35:19;;;;;;;3.13;1.30;;;18.90;29.50;;;;;;4995060;28;20398;-71
2021/04/11 11:38:14;;;;;;;6.72;1.10;;;19.00;28.40;;;;;;4987024;28;20034;-71
2021/04/11 11:41:21;;;;;;;2.65;1.10;;;19.30;28.60;;;;;;5007963;28;20026;-72
2021/04/11 11:44:05;;;;;;;1.10;0.90;;;19.50;28.30;;;;;;5003695;28;20064;-75
2021/04/11 11:46:48;;;;;;;1.55;1.10;;;19.70;26.20;;;;;;4993740;28;20425;-75
2021/04/11 11:49:21;;;;;;;1.30;0.80;;;20.00;26.20;;;;;;5003303;28;20022;-75
2021/04/11 11:52:10;;;;;;;1.73;0.82;;;20.60;24.20;;;;;;4997451;28;20022;-72
2021/04/11 11:54:47;;;;;;;2.03;0.85;;;20.90;22.90;;;;;;4994930;28;20032;-74
2021/04/11 11:57:25;;;;;;;2.67;1.55;;;20.80;19.90;;;;;;4997426;28;20022;-75
2021/04/11 12:00:20;;;;;;;3.33;1.05;;;20.80;19.60;;;;;;4996763;28;20033;-76
2021/04/11 12:02:57;;;;;;;1.45;1.10;;;21.10;17.80;;;;;;5008766;28;20038;-74
2021/04/11 12:05:57;;;;;;;2.20;1.27;;;21.40;25.80;;;;;;4990443;28;20034;-77
2021/04/11 12:08:34;;;;;;;0.70;0.70;;;22.00;23.50;;;;;;4980867;28;20030;-77
2021/04/11 12:11:10;;;;;;;2.38;1.30;;;22.10;12.70;;;;;;5005285;28;20022;-74
2021/04/11 12:13:55;;;;;;;1.88;1.13;;;22.00;10.80;;;;;;5003283;28;20042;-77
2021/04/11 12:16:33;;;;;;;0.95;0.85;;;21.90;9.30;;;;;;4994812;28;20029;-74
2021/04/11 12:19:19;;;;;;;1.92;0.80;;;21.90;9.00;;;;;;4989423;28;20030;-73
2021/04/11 12:21:52;;;;;;;2.50;1.10;;;21.80;7.60;;;;;;5008798;28;20084;-73
2021/04/11 12:24:47;;;;;;;2.67;1.05;;;21.70;6.50;;;;;;4993640;28;20147;-72
2021/04/11 12:27:15;;;;;;;2.00;0.80;;;21.60;5.60;;;;;;4990215;28;20042;-73
2021/04/11 12:29:48;;;;;;;2.50;0.98;;;21.40;4.90;;;;;;4994573;28;20153;-75
2021/04/11 12:32:37;;;;;;;1.83;1.13;;;21.30;4.70;;;;;;5000574;28;20026;-78
2021/04/11 12:35:09;;;;;;;2.10;0.80;;;21.30;5.80;;;;;;4995288;28;20030;-76
2021/04/11 12:37:48;;;;;;;1.65;0.90;;;20.60;12.50;;;;;;4997739;28;20026;-76
2021/04/11 12:40:13;;;;;;;1.35;0.70;;;20.50;17.70;;;;;;4995919;28;20037;-74
2021/04/11 12:42:52;;;;;;;2.35;1.27;;;20.30;18.20;;;;;;5008866;28;20030;-73
2021/04/11 12:45:40;;;;;;;3.13;1.10;;;20.00;19.10;;;;;;4994220;28;20026;-73
2021/04/11 12:48:41;;;;;;;2.45;1.17;;;19.60;21.00;;;;;;4986154;28;20138;-75
2021/04/11 12:51:18;;;;;;;2.47;1.05;;;19.30;25.70;;;;;;4990315;28;20034;-76
2021/04/11 12:54:22;;;;;;;2.60;1.13;;;19.20;29.30;;;;;;4993412;28;20109;-74
2021/04/11 12:57:00;;;;;;;1.52;0.90;;;18.90;38.40;;;;;;4978712;28;20049;-75
2021/04/11 12:59:50;;;;;;;2.80;1.13;;;18.80;44.40;;;;;;4994359;28;20612;-74
2021/04/11 13:02:24;;;;;;;1.75;1.23;;;18.60;49.70;;;;;;5009353;28;20559;-75
2021/04/11 13:04:56;;;;;;;1.65;1.10;;;18.90;52.00;;;;;;5008765;28;20065;-73
2021/04/11 13:07:32;;;;;;;1.48;1.15;;;19.10;52.50;;;;;;5007699;28;20487;-74
2021/04/11 13:10:14;;;;;;;2.35;1.30;;;19.30;51.90;;;;;;4995273;28;20370;-75
2021/04/11 13:13:01;;;;;;;1.10;0.70;;;19.50;48.30;;;;;;5004998;28;20025;-75
2021/04/11 13:15:40;;;;;;;1.92;0.98;;;19.50;55.70;;;;;;4984477;28;20039;-73
2021/04/11 13:18:19;;;;;;;2.05;1.08;;;19.70;46.00;;;;;;4997562;28;20545;-75
2021/04/11 13:21:10;;;;;;;1.95;0.80;;;19.90;43.40;;;;;;4995969;28;20034;-76
2021/04/11 13:23:43;;;;;;;1.65;1.08;;;20.00;42.60;;;;;;5009241;28;20122;-76
2021/04/11 13:26:33;;;;;;;2.22;1.00;;;20.10;42.70;;;;;;5024015;28;20030;-73
2021/04/11 13:29:40;;;;;;;3.08;1.27;;;19.60;43.30;;;;;;5003428;28;20061;-73
2021/04/11 13:32:20;;;;;;;1.20;1.00;;;19.30;49.30;;;;;;4985137;28;20034;-74
2021/04/11 13:35:15;;;;;;;1.52;0.90;;;19.00;50.60;;;;;;4994729;28;20045;-73
2021/04/11 13:37:52;;;;;;;1.30;1.08;;;19.00;56.90;;;;;;4939726;28;20393;-72
2021/04/11 13:40:22;;;;;;;1.52;1.15;;;19.00;60.60;;;;;;4999404;28;20030;-70
2021/04/11 13:42:59;;;;;;;1.48;0.98;;;18.80;64.10;;;;;;5009943;28;20041;-72
2021/04/11 13:45:32;;;;;;;1.75;1.10;;;18.70;70.00;;;;;;5012652;28;20053;-72
2021/04/11 13:48:35;;;;;;;3.28;1.05;;;18.70;77.70;;;;;;5021236;28;20073;-74
2021/04/11 13:51:09;;;;;;;4.88;1.45;;;18.60;86.10;;;;;;5008880;28;20097;-76
2021/04/11 13:54:13;;;;;;;0.93;0.82;;;18.50;92.50;;;;;;4996388;28;20034;-75
2021/04/11 13:57:03;;;;;;;2.47;1.33;;;18.60;97.40;;;;;;4971039;28;20023;-72